createdAt,value
2023-03-21T00:00:56.358Z,99223.56
2023-03-21T00:03:58.233Z,99226.81
2023-03-21T00:07:00.151Z,99227.56
2023-03-21T00:10:14.396Z,99227.56
2023-03-21T00:13:17.218Z,99229.25
2023-03-21T00:16:21.743Z,99224.59
2023-03-21T00:19:32.958Z,99227.75
2023-03-21T00:22:36.200Z,99230.19
2023-03-21T00:25:38.520Z,99228.16
2023-03-21T00:28:42.419Z,99225.31
2023-03-21T00:31:44.452Z,99225.22
2023-03-21T00:34:59.563Z,99221.63
2023-03-21T00:38:04.278Z,99223.31
2023-03-21T00:41:23.230Z,99227.53
2023-03-21T00:44:37.035Z,99220.34
2023-03-21T00:47:39.114Z,99222.03
2023-03-21T00:50:45.510Z,99214.00
2023-03-21T00:53:47.549Z,99218.44
2023-03-21T00:56:49.570Z,99214.72
2023-03-21T00:59:51.414Z,99205.75
2023-03-21T01:03:11.220Z,99203.84
2023-03-21T01:06:19.835Z,99196.78
2023-03-21T01:09:24.298Z,99195.81
2023-03-21T01:12:27.767Z,99195.72
2023-03-21T01:15:31.096Z,99189.69
2023-03-21T01:18:34.303Z,99196.78
2023-03-21T01:21:36.281Z,99201.22
2023-03-21T01:24:50.182Z,99193.28
2023-03-21T01:27:54.956Z,99196.53
2023-03-21T01:30:57.519Z,99191.16
2023-03-21T01:33:59.351Z,99192.84
2023-03-21T01:37:01.613Z,99196.09
2023-03-21T01:40:06.728Z,99193.34
2023-03-21T01:43:30.752Z,99198.53
2023-03-21T01:46:54.037Z,99197.56
2023-03-21T01:50:22.296Z,99200.44
2023-03-21T01:53:46.219Z,99195.88
2023-03-21T01:56:48.879Z,99200.00
2023-03-21T01:59:54.656Z,99200.72
2023-03-21T02:03:11.654Z,99197.97
2023-03-21T02:06:38.913Z,99201.22
2023-03-21T02:09:50.289Z,99192.25
2023-03-21T02:12:58.560Z,99198.25
2023-03-21T02:16:18.936Z,99200.66
2023-03-21T02:19:32.024Z,99198.88
2023-03-21T02:23:05.274Z,99191.44
2023-03-21T02:26:28.509Z,99193.97
2023-03-21T02:30:20.258Z,99192.91
2023-03-21T02:33:41.402Z,99182.97
2023-03-21T02:36:56.129Z,99178.19
2023-03-21T02:40:14.724Z,99177.22
2023-03-21T02:44:00.111Z,99181.56
2023-03-21T02:47:09.647Z,99180.38
2023-03-21T02:50:38.448Z,99174.84
2023-03-21T02:53:44.013Z,99168.63
2023-03-21T02:56:49.160Z,99171.13
2023-03-21T02:59:56.936Z,99171.88
2023-03-21T03:03:10.519Z,99176.09
2023-03-21T03:06:29.205Z,99169.09
2023-03-21T03:09:39.429Z,99168.50
2023-03-21T03:13:04.621Z,99165.63
2023-03-21T03:16:28.244Z,99170.28
2023-03-21T03:19:44.617Z,99171.03
2023-03-21T03:22:59.659Z,99168.16
2023-03-21T03:26:09.440Z,99169.94
2023-03-21T03:29:17.291Z,99176.09
2023-03-21T03:32:38.503Z,99164.78
2023-03-21T03:35:41.347Z,99169.94
2023-03-21T03:38:46.690Z,99171.63
2023-03-21T03:42:25.369Z,99176.81
2023-03-21T03:45:22.523Z,99168.75
2023-03-21T03:48:35.121Z,99168.66
2023-03-21T03:51:54.744Z,99166.84
2023-03-21T03:55:03.076Z,99165.88
2023-03-21T03:58:21.344Z,99164.69
2023-03-21T04:01:26.592Z,99169.03
2023-03-21T04:04:29.624Z,99166.16
2023-03-21T04:07:33.034Z,99169.41
2023-03-21T04:10:36.745Z,99163.16
2023-03-21T04:13:38.830Z,99173.63
2023-03-21T04:16:44.300Z,99170.75
2023-03-21T04:19:46.459Z,99165.34
2023-03-21T04:22:48.766Z,99166.56
2023-03-21T04:25:56.807Z,99167.16
2023-03-21T04:29:12.443Z,99161.41
2023-03-21T04:32:56.782Z,99169.94
2023-03-21T04:36:00.517Z,99166.09
2023-03-21T04:39:12.376Z,99168.28
2023-03-21T04:42:15.945Z,99171.41
2023-03-21T04:45:17.936Z,99180.66
2023-03-21T04:48:24.524Z,99180.31
2023-03-21T04:51:27.012Z,99182.47
2023-03-21T04:54:28.973Z,99171.66
2023-03-21T04:57:32.014Z,99172.50
2023-03-21T05:00:37.599Z,99171.16
2023-03-21T05:03:40.500Z,99174.41
2023-03-21T05:06:42.758Z,99160.94
2023-03-21T05:09:44.668Z,99170.81
2023-03-21T05:12:47.886Z,99167.19
2023-03-21T05:15:49.695Z,99162.50
2023-03-21T05:18:54.862Z,99167.66
2023-03-21T05:21:57.469Z,99170.78
2023-03-21T05:25:02.431Z,99176.44
2023-03-21T05:28:19.934Z,99172.22
2023-03-21T05:31:22.515Z,99170.41
2023-03-21T05:34:30.030Z,99171.97
2023-03-21T05:37:32.386Z,99175.56
2023-03-21T05:40:34.234Z,99176.75
2023-03-21T05:43:37.930Z,99170.69
2023-03-21T05:46:39.824Z,99182.47
2023-03-21T05:49:42.323Z,99179.91
2023-03-21T05:52:44.164Z,99170.63
2023-03-21T05:55:48.968Z,99170.81
2023-03-21T05:59:06.483Z,99176.22
2023-03-21T06:02:14.737Z,99174.13
2023-03-21T06:05:16.670Z,99174.34
2023-03-21T06:08:19.351Z,99175.50
2023-03-21T06:11:32.324Z,99172.09
2023-03-21T06:14:57.658Z,99166.97
2023-03-21T06:18:05.811Z,99172.34
2023-03-21T06:21:09.457Z,99175.13
2023-03-21T06:24:14.413Z,99173.38
2023-03-21T06:27:17.258Z,99165.72
2023-03-21T06:30:25.298Z,99173.03
2023-03-21T06:33:45.794Z,99173.34
2023-03-21T06:36:48.394Z,99175.06
2023-03-21T06:39:55.393Z,99172.47
2023-03-21T06:42:58.194Z,99169.56
2023-03-21T06:46:01.023Z,99178.94
2023-03-21T06:49:03.658Z,99173.41
2023-03-21T06:52:05.714Z,99168.13
2023-03-21T06:55:09.223Z,99169.69
2023-03-21T06:58:11.424Z,99160.59
2023-03-21T07:01:14.786Z,99157.22
2023-03-21T07:04:27.838Z,99156.00
2023-03-21T07:07:31.341Z,99157.81
2023-03-21T07:10:33.350Z,99156.81
2023-03-21T07:13:40.895Z,99161.44
2023-03-21T07:16:43.105Z,99146.47
2023-03-21T07:19:45.059Z,99157.66
2023-03-21T07:22:48.444Z,99155.97
2023-03-21T07:25:51.571Z,99159.78
2023-03-21T07:28:53.299Z,99156.00
2023-03-21T07:31:56.195Z,99157.50
2023-03-21T07:34:59.204Z,99163.34
2023-03-21T07:38:03.466Z,99162.78
2023-03-21T07:41:05.608Z,99167.78
2023-03-21T07:44:09.147Z,99168.03
2023-03-21T07:47:11.125Z,99171.38
2023-03-21T07:50:13.411Z,99162.28
2023-03-21T07:53:15.235Z,99172.59
2023-03-21T07:56:17.193Z,99166.97
2023-03-21T07:59:19.089Z,99163.72
2023-03-21T08:02:21.036Z,99165.00
2023-03-21T08:05:30.237Z,99169.16
2023-03-21T08:08:32.118Z,99164.91
2023-03-21T08:11:33.936Z,99155.31
2023-03-21T08:14:36.916Z,99157.41
2023-03-21T08:17:39.935Z,99150.53
2023-03-21T08:20:41.974Z,99154.72
2023-03-21T08:23:44.021Z,99150.09
2023-03-21T08:26:46.379Z,99144.00
2023-03-21T08:29:48.178Z,99139.75
2023-03-21T08:32:50.569Z,99136.72
2023-03-21T08:35:55.164Z,99136.63
2023-03-21T08:39:05.239Z,99143.13
2023-03-21T08:42:07.096Z,99143.03
2023-03-21T08:45:11.091Z,99142.78
2023-03-21T08:48:13.065Z,99136.53
2023-03-21T08:51:14.958Z,99134.59
2023-03-21T08:54:21.987Z,99131.78
2023-03-21T08:57:24.210Z,99140.00
2023-03-21T09:00:26.209Z,99138.31
2023-03-21T09:03:28.224Z,99132.66
2023-03-21T09:06:30.385Z,99130.25
2023-03-21T09:09:32.854Z,99130.88
2023-03-21T09:12:34.903Z,99137.41
2023-03-21T09:15:37.170Z,99123.88
2023-03-21T09:18:50.583Z,99130.09
2023-03-21T09:21:53.837Z,99126.63
2023-03-21T09:24:55.765Z,99130.06
2023-03-21T09:27:58.239Z,99124.59
2023-03-21T09:31:04.169Z,99122.63
2023-03-21T09:34:06.231Z,99125.16
2023-03-21T09:37:13.252Z,99121.69
2023-03-21T09:40:25.634Z,99122.22
2023-03-21T09:43:39.781Z,99128.91
2023-03-21T09:47:04.141Z,99123.72
2023-03-21T09:50:23.211Z,99127.91
2023-03-21T09:53:35.627Z,99125.41
2023-03-21T09:56:41.122Z,99128.75
2023-03-21T09:59:44.706Z,99126.56
2023-03-21T10:02:51.915Z,99120.38
2023-03-21T10:05:58.905Z,99111.47
2023-03-21T10:09:09.359Z,99115.84
2023-03-21T10:12:22.040Z,99114.16
2023-03-21T10:15:26.231Z,99112.16
2023-03-21T10:18:31.085Z,99108.06
2023-03-21T10:21:58.518Z,99106.53
2023-03-21T10:24:54.920Z,99108.69
2023-03-21T10:27:57.006Z,99102.16
2023-03-21T10:31:11.428Z,99100.31
2023-03-21T10:34:28.228Z,99100.31
2023-03-21T10:37:30.126Z,99088.56
2023-03-21T10:40:36.525Z,99085.69
2023-03-21T10:43:41.085Z,99083.00
2023-03-21T10:46:52.608Z,99077.47
2023-03-21T10:50:11.120Z,99070.34
2023-03-21T10:53:23.283Z,99071.28
2023-03-21T10:56:31.781Z,99076.91
2023-03-21T10:59:45.711Z,99084.09
2023-03-21T11:02:52.073Z,99073.84
2023-03-21T11:05:57.266Z,99070.16
2023-03-21T11:09:05.693Z,99083.00
2023-03-21T11:12:13.100Z,99074.16
2023-03-21T11:15:32.119Z,99077.63
2023-03-21T11:18:39.389Z,99072.72
2023-03-21T11:21:41.633Z,99078.28
2023-03-21T11:24:51.453Z,99076.28
2023-03-21T11:27:55.548Z,99069.13
2023-03-21T11:31:00.053Z,99067.41
2023-03-21T11:34:07.519Z,99073.28
2023-03-21T11:37:26.379Z,99075.13
2023-03-21T11:40:29.512Z,99073.19
2023-03-21T11:43:39.432Z,99071.41
2023-03-21T11:46:41.526Z,99063.09
2023-03-21T11:49:43.434Z,99061.00
2023-03-21T11:52:59.046Z,99062.41
2023-03-21T11:56:24.578Z,99059.53
2023-03-21T11:59:32.143Z,99054.53
2023-03-21T12:03:00.408Z,99047.88
2023-03-21T12:06:06.144Z,99056.38
2023-03-21T12:09:17.719Z,99046.44
2023-03-21T12:12:48.284Z,99045.25
2023-03-21T12:15:55.619Z,99044.28
2023-03-21T12:19:11.872Z,99041.97
2023-03-21T12:22:34.353Z,99036.56
2023-03-21T12:25:46.032Z,99034.03
2023-03-21T12:29:13.445Z,99035.38
2023-03-21T12:32:15.535Z,99037.25
2023-03-21T12:35:35.589Z,99031.66
2023-03-21T12:38:56.322Z,99024.00
2023-03-21T12:42:13.535Z,99021.22
2023-03-21T12:45:45.665Z,99020.50
2023-03-21T12:48:59.227Z,99021.63
2023-03-21T12:52:51.844Z,99024.03
2023-03-21T12:55:57.012Z,99022.56
2023-03-21T12:59:08.185Z,99018.66
2023-03-21T13:02:38.204Z,99024.13
2023-03-21T13:05:50.242Z,99023.84
2023-03-21T13:09:10.477Z,99024.22
2023-03-21T13:12:28.924Z,99023.38
2023-03-21T13:16:06.017Z,99027.13
2023-03-21T13:19:07.805Z,99027.56
2023-03-21T13:22:25.810Z,99025.72
2023-03-21T13:25:33.374Z,99026.31
2023-03-21T13:28:36.630Z,99030.81
2023-03-21T13:31:51.713Z,99029.03
2023-03-21T13:34:57.233Z,99032.19
2023-03-21T13:38:04.909Z,99035.41
2023-03-21T13:41:20.314Z,99034.16
2023-03-21T13:44:22.291Z,99030.44
2023-03-21T13:47:36.441Z,99022.81
2023-03-21T13:50:53.249Z,99025.84
2023-03-21T13:54:11.600Z,99019.22
2023-03-21T13:57:32.170Z,99018.31
2023-03-21T14:00:39.842Z,99013.34
2023-03-21T14:03:42.167Z,99011.97
2023-03-21T14:07:05.056Z,99013.50
2023-03-21T14:10:18.919Z,99017.41
2023-03-21T14:13:25.004Z,99013.03
2023-03-21T14:16:31.026Z,99017.47
2023-03-21T14:19:33.185Z,99009.13
2023-03-21T14:22:35.026Z,99012.91
2023-03-21T14:25:46.818Z,99014.47
2023-03-21T14:28:51.977Z,99015.19
2023-03-21T14:31:56.437Z,99010.34
2023-03-21T14:35:01.506Z,99016.38
2023-03-21T14:38:09.420Z,99013.41
2023-03-21T14:41:29.417Z,99011.78
2023-03-21T14:44:55.362Z,99015.97
2023-03-21T14:48:17.361Z,99020.03
2023-03-21T14:51:19.363Z,99025.38
2023-03-21T14:54:21.910Z,99021.16
2023-03-21T14:57:29.008Z,99019.91
2023-03-21T15:00:31.493Z,99024.06
2023-03-21T15:03:34.364Z,99031.16
2023-03-21T15:06:48.607Z,99027.41
2023-03-21T15:09:55.688Z,99023.06
2023-03-21T15:13:03.059Z,99021.28
2023-03-21T15:16:05.877Z,99028.00
2023-03-21T15:19:10.957Z,99028.41
2023-03-21T15:22:15.559Z,99029.41
2023-03-21T15:25:22.446Z,99030.31
2023-03-21T15:28:26.158Z,99025.16
2023-03-21T15:31:36.564Z,99030.75
2023-03-21T15:34:38.715Z,99032.63
2023-03-21T15:37:40.633Z,99031.00
2023-03-21T15:40:42.512Z,99028.91
2023-03-21T15:43:45.035Z,99022.44
2023-03-21T15:46:49.492Z,99029.13
2023-03-21T15:49:58.932Z,99031.50
2023-03-21T15:53:03.395Z,99029.03
2023-03-21T15:56:09.740Z,99030.56
2023-03-21T15:59:18.193Z,99027.91
2023-03-21T16:02:23.185Z,99031.91
2023-03-21T16:05:34.951Z,99026.38
2023-03-21T16:09:08.814Z,99034.22
2023-03-21T16:12:13.321Z,99032.22
2023-03-21T16:15:15.794Z,99032.84
2023-03-21T16:18:17.802Z,99034.16
2023-03-21T16:21:22.541Z,99037.44
2023-03-21T16:24:24.318Z,99037.22
2023-03-21T16:27:26.224Z,99038.47
2023-03-21T16:30:28.069Z,99050.59
2023-03-21T16:33:29.914Z,99054.19
2023-03-21T16:36:36.602Z,99055.63
2023-03-21T16:39:38.923Z,99057.72
2023-03-21T16:42:40.866Z,99059.66
2023-03-21T16:45:42.756Z,99058.91
2023-03-21T16:48:47.495Z,99069.50
2023-03-21T16:51:52.414Z,99065.94
2023-03-21T16:54:54.256Z,99070.34
2023-03-21T16:57:57.439Z,99072.41
2023-03-21T17:00:59.346Z,99077.13
2023-03-21T17:04:01.969Z,99074.53
2023-03-21T17:07:03.865Z,99083.75
2023-03-21T17:10:13.844Z,99080.28
2023-03-21T17:13:15.786Z,99090.72
2023-03-21T17:16:20.918Z,99081.63
2023-03-21T17:19:27.155Z,99084.19
2023-03-21T17:22:28.943Z,99090.41
2023-03-21T17:25:30.943Z,99086.97
2023-03-21T17:28:32.909Z,99083.06
2023-03-21T17:31:36.910Z,99089.81
2023-03-21T17:34:38.763Z,99092.06
2023-03-21T17:37:40.705Z,99097.69
2023-03-21T17:40:42.799Z,99103.59
2023-03-21T17:43:45.398Z,99102.63
2023-03-21T17:46:50.221Z,99105.88
2023-03-21T17:49:53.010Z,99112.84
2023-03-21T17:52:57.470Z,99112.72
2023-03-21T17:55:59.366Z,99110.34
2023-03-21T17:59:04.372Z,99112.72
2023-03-21T18:02:06.365Z,99112.47
2023-03-21T18:05:09.655Z,99119.19
2023-03-21T18:08:12.780Z,99115.41
2023-03-21T18:11:16.364Z,99116.94
2023-03-21T18:14:27.037Z,99107.03
2023-03-21T18:17:30.514Z,99110.09
2023-03-21T18:23:55.139Z,99115.53
2023-03-21T18:26:56.958Z,99117.53
2023-03-21T18:30:31.904Z,99116.13
2023-03-21T18:33:21.428Z,99114.03
2023-03-21T18:36:26.311Z,99123.25
2023-03-21T18:39:30.046Z,99121.72
2023-03-21T18:42:31.890Z,99114.00
2023-03-21T18:45:33.884Z,99119.59
2023-03-21T18:48:35.990Z,99113.72
2023-03-21T18:51:37.913Z,99125.72
2023-03-21T18:54:39.964Z,99128.66
2023-03-21T18:57:42.594Z,99128.22
2023-03-21T19:00:44.609Z,99132.25
2023-03-21T19:04:11.629Z,99131.69
2023-03-21T19:07:08.749Z,99124.97
2023-03-21T19:10:19.876Z,99134.19
2023-03-21T19:13:22.546Z,99126.63
2023-03-21T19:16:29.586Z,99141.72
2023-03-21T19:19:32.124Z,99137.66
2023-03-21T19:22:34.072Z,99139.59
2023-03-21T19:25:35.955Z,99143.47
2023-03-21T19:28:38.044Z,99143.75
2023-03-21T19:31:40.702Z,99144.28
2023-03-21T19:34:42.686Z,99148.63
2023-03-21T19:37:44.576Z,99143.56
2023-03-21T19:40:46.738Z,99135.16
2023-03-21T19:43:54.787Z,99141.44
2023-03-21T19:46:57.133Z,99136.53
2023-03-21T19:53:21.178Z,99134.28
2023-03-21T19:56:26.443Z,99135.53
2023-03-21T19:59:30.035Z,99127.81
2023-03-21T20:03:03.134Z,99130.75
2023-03-21T20:06:10.106Z,99126.53
2023-03-21T20:12:36.312Z,99125.00
2023-03-21T20:15:46.143Z,99120.66
2023-03-21T20:18:49.950Z,99125.25
2023-03-21T20:21:57.948Z,99123.56
2023-03-21T20:25:05.229Z,99128.28
2023-03-21T20:28:20.181Z,99132.06
2023-03-21T20:31:27.300Z,99130.38
2023-03-21T20:34:30.540Z,99130.50
2023-03-21T20:37:33.753Z,99128.69
2023-03-21T20:40:40.188Z,99128.94
2023-03-21T20:47:05.602Z,99133.09
2023-03-21T20:50:10.303Z,99131.53
2023-03-21T20:53:12.260Z,99139.88
2023-03-21T20:56:14.141Z,99140.84
2023-03-21T20:59:25.683Z,99132.31
2023-03-21T21:02:28.845Z,99136.31
2023-03-21T21:05:34.353Z,99122.34
2023-03-21T21:08:36.665Z,99132.13
2023-03-21T21:15:00.485Z,99142.84
2023-03-21T21:18:06.186Z,99143.81
2023-03-21T21:21:08.957Z,99141.16
2023-03-21T21:24:11.252Z,99147.69
2023-03-21T21:27:13.892Z,99146.84
2023-03-21T21:30:17.717Z,99149.38
2023-03-21T21:33:21.271Z,99146.00
2023-03-21T21:36:24.199Z,99152.88
2023-03-21T21:39:27.616Z,99153.84
2023-03-21T21:42:29.435Z,99156.34
2023-03-21T21:45:31.622Z,99154.41
2023-03-21T21:48:34.214Z,99158.88
2023-03-21T21:51:36.543Z,99166.81
2023-03-21T21:54:39.375Z,99152.72
2023-03-21T21:57:41.246Z,99154.66
2023-03-21T22:00:44.310Z,99148.66
2023-03-21T22:03:46.913Z,99150.22
2023-03-21T22:06:48.778Z,99154.66
2023-03-21T22:09:50.678Z,99157.06
2023-03-21T22:12:52.572Z,99159.34
2023-03-21T22:15:55.107Z,99157.53
2023-03-21T22:18:56.966Z,99154.41
2023-03-21T22:21:58.863Z,99160.56
2023-03-21T22:25:00.788Z,99164.06
2023-03-21T22:28:02.760Z,99164.75
2023-03-21T22:31:23.447Z,99168.84
2023-03-21T22:34:26.550Z,99157.53
2023-03-21T22:37:28.744Z,99157.19
2023-03-21T22:40:30.600Z,99160.44
2023-03-21T22:43:34.317Z,99152.22
2023-03-21T22:46:36.400Z,99160.88
2023-03-21T22:49:39.245Z,99152.69
2023-03-21T22:52:41.115Z,99160.63
2023-03-21T22:55:43.028Z,99165.81
2023-03-21T22:58:44.972Z,99157.00
2023-03-21T23:01:46.993Z,99151.44
2023-03-21T23:04:48.872Z,99149.63
2023-03-21T23:07:50.827Z,99144.34
2023-03-21T23:10:53.007Z,99154.09
2023-03-21T23:14:06.735Z,99155.06
2023-03-21T23:17:10.242Z,99156.03
2023-03-21T23:20:12.452Z,99155.31
2023-03-21T23:23:14.300Z,99151.72
2023-03-21T23:26:18.330Z,99143.19
2023-03-21T23:29:20.208Z,99144.28
2023-03-21T23:32:22.204Z,99156.69
2023-03-21T23:35:24.573Z,99150.66
2023-03-21T23:38:26.432Z,99156.09
2023-03-21T23:41:28.331Z,99145.75
2023-03-21T23:44:30.312Z,99153.13
2023-03-21T23:47:32.209Z,99144.59
2023-03-21T23:50:34.083Z,99145.69
2023-03-21T23:53:37.583Z,99140.75
2023-03-21T23:56:39.611Z,99148.13
2023-03-21T23:59:41.545Z,99153.41
